Westport, CT (06880)

6:23 PM EDT on March 28, 2015 (GMT -0400)
Wild Rose Manor | | Change Station
CLOSE
Current Station
Personal Weather Station
Location: Westport, CT
Elevation: 89 ft
Nearby Weather Stations

Elev 89 ft 41.15 °N, 73.36 °W | Updated 10 seconds ago

Snow
Snow
30.7 °F
Feels Like 31 °F
N
0.0
Wind Variable Wind from West
Gusts 3.0 mph

Today
High -- | Low -- °F
--% Chance of Precip.
Yesterday
High -- | Low -- °F
Precip. -- in
6:43 AM 7:13 PM
Waxing Gibbous, 66% visible
Pressure 29.89 in
Visibility 4.0 miles
Clouds Mostly Cloudy 3000 ft
Overcast 3700 ft
Windchill 31 °F
Dew Point 26 °F
Humidity 83%
Rainfall 0.04 in
Snow Depth Not available.
UV 0 out of 12
Pollen 3.60 out of 12
Air Quality Not available.
Flu Activity Not available.
METAR KBDR 282152Z 32013KT 4SM -SN BKN030 OVC037 00/M04 A2989 RMK AO2 SLP120 P0000 T00001039

More Conditions Fewer Conditions

Pressure 29.89 in
Visibility 4.0 miles
Clouds Mostly Cloudy 3000 ft
Overcast 3700 ft
Windchill 31 °F
Dew Point 26 °F
Humidity 83%
Rainfall 0.04 in
Snow Depth Not available.
UV 0 out of 12
Pollen 3.60 out of 12
Air Quality Not available.
Flu Activity Not available.
METAR KBDR 282152Z 32013KT 4SM -SN BKN030 OVC037 00/M04 A2989 RMK AO2 SLP120 P0000 T00001039

More Conditions Fewer Conditions

10-Day Weather Forecast

Almanac

Astronomy

Mar. 28, 2015 Rise Set
Actual Time
Civil Twilight
Nautical Twilight
Astronomical Twilight
Moon
Length of Visible Light
Length of Day
Tomorrow will be .
, % of the Moon is Illuminated

Today's Extremes

State Highs State Lows

Community

WunderPhotos

Upload Photos

1,809,108 photos uploaded!

WunderBlogs® & News

Nearby

Air Quality

  Air Quality AQ Index Pollutant
Not available.

Snow Depth

Station Depth Elevation

Earthquake Activity

City Distance Mag. Time & Date
Minimum magnitude displayed is 2.5.

Coastal Water Temperatures

Place Temperature

Stations

Nearby Weather Stations

Station Location Temp. Windchill Dew Point Humidity Wind Precip. Elev Updated Type